Hovedside
METAR-TAF:

METAR-TAF

Lufthavner :

Sørkjosen lufthavn

Sørkjosen, Norge

breddegrad: 69-47N, lengdegrad: 020-58E, høyde over havet: 0 m

Gjeldene værobservasjon

Denne rapporten ble laget for 1 time og 6 minutter siden, klokken 09:50 UTC
Vind 10 kt fra Vest-sørvest
Temperatur 12°C
Luftfuktighet 67%
Trykk 984 hPa
Sikt 10 km eller mer
Spredte skyer i en høyde av 4000 ft
Brutte skyer i en høyde av 5000 ft
regnbyger i nærheten

METAR: ENSR 210950Z VRB02KT 9999 VCSH SCT040 BKN050 12/06 Q0984 WIND 1119FT 24010KT

Tid: 12:56 (10:56 UTC)


TAF: fraværende

Værobservasjoner og værvarsel for over 4000 flyplasser (METAR- og TAF-rapporter).

Tilgjengelige stasjoner er representert av de røde og gule prikkene på kartet.

Hold musepekeren over prikken for å se navnet på stasjonen.

Klikk så for å se værobservasjoner og -varsler.

For å forandre kartet kan du klikke på den grønne knappen med svart kryss for å zoome inn, på den grønne knappen med strek for å zoome ut, eller på de grønne pilene for å se tilstøtende kart.


METAR-TAF: